Weather at Adolfo Suárez Madrid–Barajas Airport

Public forecast

Using degrees Celsius for public forecast. Weather courtesy of forecast.io.

Current aviation weather report (METAR) for Adolfo Suárez Madrid–Barajas Airport

Retrieved 2021/06/12 20:30 UTC (47 seconds ago):

LEMD 122030Z 13009KT 9999 FEW060TCU 27/10 Q1019 NOSIG

Aviation forecast (TAF) for Adolfo Suárez Madrid–Barajas Airport

Retrieved 2021/06/12 18:27 UTC (2 hours ago):

TAF TAF LEMD 121700Z 1218/1324 13010KT CAVOK TX34/1316Z TN16/1305Z PROB30 TEMPO 1218/1221 15015G25KT PROB40 TEMPO 1218/1223 FEW040CB PROB30 TEMPO 1218/1222 VRB15G28KT 3000 TSRA SCT030CB BECMG 1222/1224 03008KT BECMG 1307/1308 09012KT BECMG 1310/1311 16014KT PROB40 TEMPO 1314/1318 16018G33KT PROB30 TEMPO 1317/1322 VRB15G28KT 3000 TSRA SCT030CB BECMG 1317/1318 16008KT